Time;durP1;ratioP1;P1;durP2;ratioP2;P2;SDS_P1;SDS_P2;PMS_P1;PMS_P2;Temp;Humidity;BMP_temperature;BMP_pressure;BME280_temperature;BME280_humidity;BME280_pressure;Samples;Min_cycle;Max_cycle;Signal;HPM_P1;HPM_P2
2021/12/20 00:00:10;;;;;;;14.07;7.30;;;6.60;1.00;;;;;;5022939;28;20268;-84
2021/12/20 00:02:39;;;;;;;20.47;7.73;;;6.60;1.00;;;;;;5015252;28;20459;-86
2021/12/20 00:05:08;;;;;;;13.27;7.40;;;6.60;1.00;;;;;;5022579;28;20452;-84
2021/12/20 00:07:36;;;;;;;11.50;6.18;;;6.60;1.00;;;;;;5026791;28;20475;-84
2021/12/20 00:10:06;;;;;;;12.37;6.50;;;6.60;1.00;;;;;;5028558;28;20606;-84
2021/12/20 00:12:35;;;;;;;12.55;6.45;;;6.60;1.00;;;;;;5019227;28;20476;-86
2021/12/20 00:15:05;;;;;;;17.30;6.67;;;6.60;1.00;;;;;;5017557;28;20194;-85
2021/12/20 00:17:34;;;;;;;17.67;6.73;;;6.50;1.00;;;;;;5024694;28;20458;-85
2021/12/20 00:20:02;;;;;;;13.95;6.85;;;6.60;1.00;;;;;;5018077;28;20480;-86
2021/12/20 00:22:31;;;;;;;14.80;6.40;;;6.60;1.00;;;;;;5025116;28;20201;-85
2021/12/20 00:24:59;;;;;;;14.83;6.53;;;6.60;1.00;;;;;;5023420;28;20464;-85
2021/12/20 00:27:27;;;;;;;12.80;5.80;;;6.60;1.00;;;;;;5006110;28;20467;-84
2021/12/20 00:29:56;;;;;;;18.13;7.97;;;6.60;1.00;;;;;;5021371;28;20495;-85
2021/12/20 00:32:25;;;;;;;13.90;6.03;;;6.60;1.00;;;;;;5019255;28;20551;-86
2021/12/20 00:34:54;;;;;;;13.00;7.82;;;6.60;1.00;;;;;;5017979;28;20446;-84
2021/12/20 00:40:21;;;;;;;16.60;7.68;;;6.60;1.00;;;;;;5017808;28;20476;-84
2021/12/20 00:42:52;;;;;;;12.53;6.93;;;6.60;1.00;;;;;;5022358;28;20227;-85
2021/12/20 00:45:24;;;;;;;11.30;6.20;;;6.70;1.00;;;;;;5021485;28;20474;-85
2021/12/20 00:47:53;;;;;;;13.90;6.33;;;6.50;1.00;;;;;;5016084;28;20471;-85
2021/12/20 00:50:24;;;;;;;12.77;6.70;;;6.40;1.00;;;;;;5020119;28;20472;-85
2021/12/20 00:52:53;;;;;;;15.67;6.03;;;6.40;1.00;;;;;;5023460;28;20460;-84
2021/12/20 00:55:23;;;;;;;11.60;5.80;;;6.50;1.00;;;;;;5018281;28;20845;-85
2021/12/20 00:57:53;;;;;;;12.67;6.97;;;6.40;1.00;;;;;;5021675;28;20867;-85
2021/12/20 01:00:25;;;;;;;12.73;6.50;;;6.40;1.00;;;;;;5023055;28;20480;-85
2021/12/20 01:02:55;;;;;;;11.70;5.20;;;6.40;1.00;;;;;;5023679;28;20448;-85
2021/12/20 01:05:25;;;;;;;15.00;6.23;;;6.40;1.00;;;;;;5019457;28;20241;-85
2021/12/20 01:07:56;;;;;;;11.47;6.37;;;6.50;1.00;;;;;;5025997;28;20525;-85
2021/12/20 01:10:25;;;;;;;10.73;5.87;;;6.50;1.00;;;;;;5026375;28;20467;-84
2021/12/20 01:12:55;;;;;;;17.83;7.97;;;6.50;1.00;;;;;;5023854;28;20464;-84
2021/12/20 01:15:27;;;;;;;9.00;5.10;;;6.20;1.00;;;;;;5021635;28;20998;-84
2021/12/20 01:17:57;;;;;;;11.13;5.65;;;6.30;1.00;;;;;;5020195;28;20888;-85
2021/12/20 01:20:26;;;;;;;11.18;6.03;;;6.30;1.00;;;;;;5024604;28;20622;-84
2021/12/20 01:22:54;;;;;;;10.50;6.10;;;6.40;1.00;;;;;;5025381;28;20206;-84
2021/12/20 01:25:23;;;;;;;12.13;6.33;;;6.40;1.00;;;;;;5028763;28;21018;-85
2021/12/20 01:27:52;;;;;;;11.63;5.80;;;6.50;1.00;;;;;;5026099;28;20495;-85
2021/12/20 01:30:23;;;;;;;10.13;6.03;;;6.50;1.00;;;;;;5020879;28;20229;-86
2021/12/20 01:32:51;;;;;;;13.73;7.38;;;6.50;1.00;;;;;;5029927;28;20456;-87
2021/12/20 01:35:23;;;;;;;14.37;8.57;;;6.50;1.00;;;;;;5036054;28;20205;-85
2021/12/20 01:37:52;;;;;;;12.90;7.10;;;6.40;1.00;;;;;;5024508;28;20602;-86
2021/12/20 01:40:21;;;;;;;12.80;7.17;;;6.30;1.00;;;;;;5033915;28;20489;-86
2021/12/20 01:42:54;;;;;;;13.65;6.60;;;6.20;99.90;;;;;;5030323;28;20530;-86
2021/12/20 01:45:24;;;;;;;15.87;6.77;;;6.20;99.90;;;;;;5020579;28;20221;-85
2021/12/20 01:48:02;;;;;;;17.00;6.80;;;6.30;99.90;;;;;;5022976;28;20670;-84
2021/12/20 01:53:21;;;;;;;13.63;6.30;;;6.30;99.90;;;;;;5021493;28;20681;-84
2021/12/20 01:55:51;;;;;;;10.63;6.63;;;6.30;99.90;;;;;;5023575;28;20960;-83
2021/12/20 01:58:20;;;;;;;13.10;8.00;;;6.40;84.40;;;;;;5029225;28;20197;-84
2021/12/20 02:01:03;;;;;;;16.83;7.13;;;6.40;65.10;;;;;;5028116;28;20229;-83
2021/12/20 02:03:33;;;;;;;15.00;7.65;;;6.50;1.00;;;;;;5015210;28;20972;-84
2021/12/20 02:06:07;;;;;;;17.93;7.93;;;6.50;1.00;;;;;;5019002;28;20666;-85
2021/12/20 02:08:35;;;;;;;14.17;5.87;;;6.50;10.00;;;;;;5031476;28;20470;-83
2021/12/20 02:11:09;;;;;;;12.90;6.37;;;6.50;1.00;;;;;;5028160;28;20487;-83
2021/12/20 02:13:39;;;;;;;7.83;6.03;;;6.80;1.00;;;;;;5024397;28;20870;-84
2021/12/20 02:16:08;;;;;;;13.53;6.00;;;6.50;1.00;;;;;;5018308;28;20567;-83
2021/12/20 02:18:37;;;;;;;12.53;7.10;;;6.60;1.00;;;;;;5020643;28;20583;-84
2021/12/20 02:21:07;;;;;;;11.83;6.70;;;6.60;1.00;;;;;;5021097;28;20476;-84
2021/12/20 02:23:35;;;;;;;11.83;6.30;;;6.60;1.00;;;;;;5019074;28;20487;-85
2021/12/20 02:26:05;;;;;;;12.37;6.20;;;6.60;1.00;;;;;;5027117;28;20521;-84
2021/12/20 02:28:38;;;;;;;10.87;5.50;;;6.60;1.00;;;;;;5022407;28;20483;-85
2021/12/20 02:39:29;;;;;;;13.68;6.90;;;6.60;1.00;;;;;;5025802;28;20201;-83
2021/12/20 02:41:57;;;;;;;13.87;6.00;;;6.60;1.00;;;;;;5011165;28;20216;-84
2021/12/20 02:44:28;;;;;;;12.03;5.33;;;6.50;1.00;;;;;;5021582;28;20483;-84
2021/12/20 02:47:09;;;;;;;13.88;7.10;;;6.50;1.00;;;;;;5020998;28;20550;-84
2021/12/20 02:49:37;;;;;;;7.33;5.30;;;6.60;1.00;;;;;;5022166;28;20225;-85
2021/12/20 02:52:08;;;;;;;12.88;5.55;;;6.60;1.00;;;;;;5028660;28;20475;-83
2021/12/20 02:54:37;;;;;;;11.73;5.83;;;6.50;1.00;;;;;;5027132;28;20628;-84
2021/12/20 02:57:06;;;;;;;12.47;7.00;;;6.50;1.00;;;;;;5023057;28;20475;-85
2021/12/20 02:59:34;;;;;;;13.80;6.85;;;6.50;1.00;;;;;;5011663;28;20463;-84
2021/12/20 03:02:06;;;;;;;12.03;6.77;;;6.50;1.00;;;;;;5030149;28;20286;-84
2021/12/20 03:04:35;;;;;;;11.13;5.53;;;6.50;1.00;;;;;;5011149;28;20487;-83
2021/12/20 03:07:08;;;;;;;8.20;5.20;;;6.50;1.00;;;;;;5017244;28;20299;-84
2021/12/20 03:09:40;;;;;;;10.15;5.47;;;6.50;1.00;;;;;;5011039;28;20545;-84
2021/12/20 03:12:12;;;;;;;13.98;6.93;;;6.60;1.00;;;;;;5014938;28;20205;-84
2021/12/20 03:14:44;;;;;;;10.82;6.35;;;6.60;1.00;;;;;;5025139;28;20202;-85
2021/12/20 03:17:13;;;;;;;9.17;5.30;;;6.60;1.00;;;;;;5028313;28;20205;-85
2021/12/20 03:19:42;;;;;;;11.80;6.50;;;6.60;1.00;;;;;;5018840;28;20486;-85
2021/12/20 03:22:12;;;;;;;14.27;6.90;;;6.60;1.00;;;;;;5020737;28;20514;-84
2021/12/20 03:24:40;;;;;;;13.30;6.97;;;6.60;1.00;;;;;;5022056;28;20558;-83
2021/12/20 03:27:08;;;;;;;14.63;7.27;;;6.60;1.00;;;;;;5028819;28;20484;-84
2021/12/20 03:29:37;;;;;;;13.27;5.70;;;6.60;1.00;;;;;;5033064;28;20578;-83
2021/12/20 03:32:06;;;;;;;12.00;5.47;;;6.50;1.00;;;;;;5025207;28;21071;-82
2021/12/20 03:34:34;;;;;;;11.87;5.80;;;6.50;1.00;;;;;;5025109;28;20460;-84
2021/12/20 03:37:03;;;;;;;15.32;6.45;;;6.50;1.00;;;;;;5021530;28;20492;-84
2021/12/20 03:39:33;;;;;;;13.83;6.20;;;6.60;1.00;;;;;;5022284;28;20229;-85
2021/12/20 03:42:01;;;;;;;9.33;6.03;;;6.50;1.00;;;;;;5021177;28;20477;-85
2021/12/20 03:44:33;;;;;;;11.77;6.37;;;6.50;1.00;;;;;;5026029;28;20472;-82
2021/12/20 03:47:01;;;;;;;8.63;5.20;;;6.50;1.00;;;;;;5017665;28;20468;-84
2021/12/20 03:49:30;;;;;;;10.10;5.40;;;6.50;1.00;;;;;;5022540;28;20474;-85
2021/12/20 03:51:58;;;;;;;11.03;6.60;;;6.50;1.00;;;;;;5028438;28;20453;-85
2021/12/20 03:54:26;;;;;;;10.80;5.67;;;6.60;1.00;;;;;;5023907;28;20456;-85
2021/12/20 03:56:56;;;;;;;11.20;5.45;;;6.60;1.00;;;;;;5007543;28;20468;-83
2021/12/20 03:59:25;;;;;;;13.75;6.60;;;6.60;1.00;;;;;;5030953;28;20315;-83
2021/12/20 04:01:53;;;;;;;11.50;6.23;;;6.60;1.00;;;;;;5020255;28;20738;-84
2021/12/20 04:04:22;;;;;;;13.10;6.73;;;6.60;1.00;;;;;;5021160;28;20937;-84
2021/12/20 04:06:51;;;;;;;10.55;5.20;;;6.60;1.00;;;;;;5021091;28;20635;-84
2021/12/20 04:09:19;;;;;;;6.30;4.30;;;6.60;1.00;;;;;;5018025;28;20198;-84
2021/12/20 04:11:48;;;;;;;14.23;6.13;;;6.60;1.00;;;;;;5005434;28;20241;-85
2021/12/20 04:14:17;;;;;;;12.95;4.55;;;6.60;1.00;;;;;;5008772;28;20583;-85
2021/12/20 04:16:46;;;;;;;9.38;4.50;;;6.60;1.00;;;;;;5004576;28;20226;-85
2021/12/20 04:19:14;;;;;;;8.00;5.15;;;6.60;1.00;;;;;;5016057;28;20243;-85
2021/12/20 04:21:43;;;;;;;11.97;5.90;;;6.60;1.00;;;;;;5026007;28;20699;-83
2021/12/20 04:24:11;;;;;;;10.10;5.70;;;6.60;1.00;;;;;;5017698;28;20559;-85
2021/12/20 04:26:40;;;;;;;10.00;5.50;;;6.60;1.00;;;;;;5019673;28;20756;-83
2021/12/20 04:29:09;;;;;;;11.33;5.23;;;6.60;1.00;;;;;;5027387;28;20503;-82
2021/12/20 04:31:39;;;;;;;12.00;5.05;;;6.50;1.00;;;;;;5019009;28;20995;-85
2021/12/20 04:34:07;;;;;;;12.20;6.70;;;6.50;1.00;;;;;;5024380;28;20221;-83
2021/12/20 04:36:36;;;;;;;11.23;5.20;;;6.50;1.00;;;;;;5016708;28;20293;-84
2021/12/20 04:39:07;;;;;;;12.97;5.90;;;6.50;1.00;;;;;;5017379;28;20278;-85
2021/12/20 04:41:35;;;;;;;12.53;5.23;;;6.50;1.00;;;;;;5027056;28;20512;-84
2021/12/20 04:44:04;;;;;;;10.90;5.17;;;6.50;1.00;;;;;;5028159;28;20464;-84
2021/12/20 04:46:33;;;;;;;10.43;5.93;;;6.50;1.00;;;;;;5022755;28;20578;-85
2021/12/20 04:49:03;;;;;;;9.00;6.23;;;6.50;1.00;;;;;;5019788;28;20287;-81
2021/12/20 04:51:32;;;;;;;12.43;6.15;;;6.50;1.00;;;;;;5022391;28;20488;-80
2021/12/20 04:54:00;;;;;;;11.90;6.37;;;6.50;1.00;;;;;;5023782;28;20226;-82
2021/12/20 04:56:29;;;;;;;12.50;6.67;;;6.60;1.00;;;;;;5029838;28;20451;-83
2021/12/20 04:58:57;;;;;;;9.80;5.57;;;6.60;1.00;;;;;;5019728;28;20462;-83
2021/12/20 05:01:26;;;;;;;14.97;6.80;;;6.50;1.00;;;;;;5021780;28;21079;-83
2021/12/20 05:03:55;;;;;;;11.47;5.70;;;6.50;1.00;;;;;;5032034;28;20467;-84
2021/12/20 05:06:25;;;;;;;13.80;7.05;;;6.60;1.00;;;;;;5038684;28;20486;-85
2021/12/20 05:08:55;;;;;;;12.30;6.43;;;6.60;1.00;;;;;;5032137;28;20204;-84
2021/12/20 05:11:24;;;;;;;13.70;6.20;;;6.60;1.00;;;;;;5013765;28;20229;-84
2021/12/20 05:13:53;;;;;;;11.45;5.30;;;6.60;1.00;;;;;;5023470;28;20210;-85
2021/12/20 05:16:21;;;;;;;12.00;5.32;;;6.70;1.00;;;;;;5023138;28;20203;-84
2021/12/20 05:18:50;;;;;;;9.95;6.40;;;6.70;1.00;;;;;;5024523;28;20617;-83
2021/12/20 05:21:18;;;;;;;12.57;6.00;;;6.60;1.00;;;;;;5024461;28;20229;-83
2021/12/20 05:23:48;;;;;;;13.27;5.20;;;6.70;1.00;;;;;;5030546;28;20298;-84
2021/12/20 05:26:16;;;;;;;10.80;6.60;;;6.60;1.00;;;;;;5029500;28;20491;-86
2021/12/20 05:28:45;;;;;;;8.77;4.45;;;6.60;1.00;;;;;;5026902;28;20918;-84
2021/12/20 05:31:13;;;;;;;7.88;5.53;;;6.60;1.00;;;;;;5017355;28;20239;-82
2021/12/20 05:33:42;;;;;;;11.10;5.97;;;6.60;1.00;;;;;;5027398;28;20218;-84
2021/12/20 05:36:10;;;;;;;12.02;6.15;;;6.60;1.00;;;;;;5028729;28;20459;-83
2021/12/20 05:38:49;;;;;;;9.27;5.43;;;6.70;1.00;;;;;;5023477;28;20202;-82
2021/12/20 05:41:18;;;;;;;14.30;6.30;;;6.70;1.00;;;;;;5022458;28;20483;-82
2021/12/20 05:43:47;;;;;;;11.55;5.50;;;6.70;1.00;;;;;;5029093;28;20474;-83
2021/12/20 05:46:15;;;;;;;7.68;4.97;;;6.70;1.00;;;;;;5022007;28;20316;-84
2021/12/20 05:48:43;;;;;;;11.68;7.53;;;6.70;1.00;;;;;;5021594;28;20234;-86
2021/12/20 05:51:15;;;;;;;6.78;4.70;;;6.70;1.00;;;;;;5033131;28;20230;-87
2021/12/20 05:53:43;;;;;;;15.13;6.03;;;6.70;1.00;;;;;;5027171;28;20206;-86
2021/12/20 05:56:13;;;;;;;11.40;5.53;;;6.70;1.00;;;;;;5025677;28;20206;-85
2021/12/20 05:58:41;;;;;;;10.57;5.65;;;7.00;1.00;;;;;;5027945;28;20818;-85
2021/12/20 06:01:09;;;;;;;12.27;5.43;;;6.70;1.00;;;;;;5026469;28;20225;-85
2021/12/20 06:03:38;;;;;;;8.30;5.20;;;6.70;1.00;;;;;;5021031;28;20888;-86
2021/12/20 06:06:08;;;;;;;11.43;5.10;;;6.70;1.00;;;;;;5028507;28;20697;-84
2021/12/20 06:08:36;;;;;;;9.77;5.20;;;6.70;1.00;;;;;;5014966;28;20649;-86
2021/12/20 06:11:04;;;;;;;12.30;5.80;;;6.70;1.00;;;;;;5025462;28;20288;-85
2021/12/20 06:13:34;;;;;;;10.90;6.50;;;6.70;1.00;;;;;;5023144;28;20459;-86
2021/12/20 06:16:03;;;;;;;16.10;7.50;;;6.70;1.00;;;;;;5027884;28;20504;-83
2021/12/20 06:18:34;;;;;;;11.10;6.60;;;6.70;1.00;;;;;;5028863;28;20588;-85
2021/12/20 06:21:03;;;;;;;11.90;6.60;;;6.70;1.00;;;;;;5024498;28;20463;-85
2021/12/20 06:23:31;;;;;;;12.80;5.70;;;6.70;1.00;;;;;;5022001;28;20456;-84
2021/12/20 06:26:00;;;;;;;12.60;5.90;;;6.70;1.00;;;;;;5024048;28;20221;-84
2021/12/20 06:28:29;;;;;;;10.90;5.30;;;6.70;1.00;;;;;;5020469;28;20562;-85
2021/12/20 06:30:58;;;;;;;10.27;6.07;;;6.70;1.00;;;;;;5032208;28;20237;-86
2021/12/20 06:33:27;;;;;;;12.23;6.10;;;6.80;1.00;;;;;;5017488;28;20220;-85
2021/12/20 06:35:55;;;;;;;9.37;5.07;;;6.70;1.00;;;;;;5028353;28;20918;-86
2021/12/20 06:38:24;;;;;;;10.30;5.43;;;6.70;1.00;;;;;;5028316;28;20493;-85
2021/12/20 06:40:54;;;;;;;10.80;6.00;;;6.70;1.00;;;;;;5027416;28;20500;-88
2021/12/20 06:43:23;;;;;;;12.60;6.53;;;6.70;1.00;;;;;;5021722;28;20456;-84
2021/12/20 06:45:52;;;;;;;10.90;5.40;;;6.70;1.00;;;;;;5022069;28;20465;-87
2021/12/20 06:48:22;;;;;;;13.05;6.20;;;6.70;1.00;;;;;;5023484;28;20553;-88
2021/12/20 06:50:50;;;;;;;11.80;5.80;;;6.70;1.00;;;;;;5029424;28;20229;-87
2021/12/20 06:53:19;;;;;;;14.40;6.27;;;6.70;1.00;;;;;;5020450;28;20485;-89
2021/12/20 06:55:47;;;;;;;12.60;6.60;;;6.70;1.00;;;;;;5019323;28;20473;-84
2021/12/20 06:58:16;;;;;;;12.70;6.97;;;6.80;1.00;;;;;;5029213;28;20749;-87
2021/12/20 07:00:44;;;;;;;10.97;6.33;;;6.80;1.00;;;;;;5022718;28;20827;-85
2021/12/20 07:03:12;;;;;;;10.60;5.40;;;6.50;1.00;;;;;;5020290;28;20591;-85
2021/12/20 07:05:42;;;;;;;11.90;4.97;;;6.80;1.00;;;;;;5016566;28;20556;-83
2021/12/20 07:08:11;;;;;;;8.93;5.10;;;6.80;1.00;;;;;;5008362;28;20489;-85
2021/12/20 07:10:39;;;;;;;11.63;4.30;;;6.80;1.00;;;;;;5012510;28;20571;-84
2021/12/20 07:13:08;;;;;;;10.10;5.43;;;6.80;1.00;;;;;;5013085;28;20523;-84
2021/12/20 07:15:36;;;;;;;7.18;4.47;;;6.80;1.00;;;;;;5016494;28;20204;-83
2021/12/20 07:18:05;;;;;;;11.07;4.30;;;6.80;1.00;;;;;;5027553;28;20862;-88
2021/12/20 07:20:34;;;;;;;9.30;5.20;;;6.80;1.00;;;;;;5017187;28;20292;-82
2021/12/20 07:23:05;;;;;;;8.80;5.13;;;6.80;1.00;;;;;;5023119;28;20468;-84
2021/12/20 07:25:33;;;;;;;10.27;6.50;;;6.80;1.00;;;;;;5022398;28;20495;-84
2021/12/20 07:28:02;;;;;;;8.40;5.27;;;6.80;1.00;;;;;;5018490;28;20283;-84
2021/12/20 07:30:30;;;;;;;8.50;5.57;;;6.80;1.00;;;;;;5030935;28;20476;-83
2021/12/20 07:32:59;;;;;;;9.80;4.43;;;6.80;1.00;;;;;;5023557;28;20804;-83
2021/12/20 07:35:28;;;;;;;16.90;4.63;;;6.80;1.00;;;;;;5021944;28;20819;-83
2021/12/20 07:37:59;;;;;;;7.90;4.67;;;6.80;1.00;;;;;;5030143;28;20943;-84
2021/12/20 07:40:29;;;;;;;7.37;5.33;;;6.70;1.00;;;;;;5027457;28;20479;-84
2021/12/20 07:42:57;;;;;;;9.43;4.32;;;6.80;1.00;;;;;;5025258;28;21006;-83
2021/12/20 07:45:26;;;;;;;11.57;5.53;;;6.80;1.00;;;;;;5023828;28;20230;-85
2021/12/20 07:47:54;;;;;;;11.03;4.67;;;6.80;1.00;;;;;;5024039;28;20494;-87
2021/12/20 07:50:22;;;;;;;10.93;5.00;;;6.80;1.00;;;;;;5025228;28;20475;-85
2021/12/20 07:52:51;;;;;;;9.23;4.77;;;6.70;1.00;;;;;;5013581;28;20913;-85
2021/12/20 07:55:20;;;;;;;10.80;4.50;;;6.80;1.00;;;;;;5029565;28;20452;-84
2021/12/20 07:57:50;;;;;;;9.77;5.23;;;6.80;1.00;;;;;;5016615;28;20875;-83
2021/12/20 08:00:19;;;;;;;12.37;5.63;;;6.80;1.00;;;;;;5014522;28;20485;-84
2021/12/20 08:02:48;;;;;;;9.70;5.60;;;6.80;1.00;;;;;;5022153;28;20514;-83
2021/12/20 08:05:19;;;;;;;6.93;4.07;;;6.70;1.00;;;;;;5029850;28;20471;-86
2021/12/20 08:07:50;;;;;;;7.47;5.37;;;6.70;1.00;;;;;;5015258;28;20562;-87
2021/12/20 08:10:19;;;;;;;13.70;5.87;;;6.70;1.00;;;;;;5036607;28;20910;-85
2021/12/20 08:12:49;;;;;;;10.23;6.03;;;6.80;1.00;;;;;;5018923;28;20696;-86
2021/12/20 08:15:18;;;;;;;9.40;5.20;;;6.80;1.00;;;;;;5025930;28;20453;-83
2021/12/20 08:17:46;;;;;;;8.20;4.60;;;6.80;1.00;;;;;;5020177;28;20453;-85
2021/12/20 08:20:15;;;;;;;13.80;8.43;;;6.90;1.00;;;;;;5028543;28;20517;-87
2021/12/20 08:22:47;;;;;;;10.50;6.17;;;6.80;1.00;;;;;;5022785;28;20221;-83
2021/12/20 08:25:18;;;;;;;11.40;5.50;;;6.90;1.00;;;;;;5026923;28;20829;-86
2021/12/20 08:27:47;;;;;;;12.57;7.90;;;6.90;1.00;;;;;;5017204;28;20539;-84
2021/12/20 08:30:18;;;;;;;12.10;6.30;;;6.90;1.00;;;;;;5020956;28;20541;-85
2021/12/20 08:32:46;;;;;;;16.70;5.90;;;6.90;1.00;;;;;;5022826;28;20810;-86
2021/12/20 08:35:15;;;;;;;9.97;5.43;;;6.90;1.00;;;;;;5026806;28;20453;-85
2021/12/20 08:37:44;;;;;;;13.00;6.00;;;6.90;1.00;;;;;;5023138;28;20441;-83
2021/12/20 08:40:17;;;;;;;9.47;5.60;;;6.90;1.00;;;;;;5025814;28;20464;-85
2021/12/20 08:42:46;;;;;;;9.20;5.23;;;7.00;1.00;;;;;;5026228;28;20457;-85
2021/12/20 08:45:17;;;;;;;12.50;7.18;;;7.00;1.00;;;;;;5024261;28;20449;-84
2021/12/20 08:47:51;;;;;;;11.70;6.63;;;7.00;1.00;;;;;;5023371;28;20777;-87
2021/12/20 08:50:21;;;;;;;14.33;6.67;;;7.00;1.00;;;;;;5020862;28;20476;-84
2021/12/20 08:52:50;;;;;;;15.73;7.27;;;7.00;1.00;;;;;;5026504;28;20445;-80
2021/12/20 08:55:19;;;;;;;12.87;7.63;;;7.00;1.00;;;;;;5025202;28;20496;-84
2021/12/20 08:57:47;;;;;;;9.40;5.97;;;7.00;1.00;;;;;;5023705;28;20467;-81
2021/12/20 09:00:20;;;;;;;14.90;7.88;;;7.00;1.00;;;;;;5024273;28;20464;-83
2021/12/20 09:02:49;;;;;;;11.57;5.90;;;7.00;1.00;;;;;;5030446;28;20209;-83
2021/12/20 09:05:18;;;;;;;15.87;7.20;;;7.10;1.00;;;;;;5007543;28;20488;-87
2021/12/20 09:07:46;;;;;;;11.93;7.30;;;7.10;1.00;;;;;;5013419;28;20514;-81
2021/12/20 09:10:17;;;;;;;11.23;6.20;;;7.10;1.00;;;;;;5024687;28;20476;-84
2021/12/20 09:12:46;;;;;;;11.20;5.23;;;7.10;1.00;;;;;;5025612;28;20467;-84
2021/12/20 09:15:17;;;;;;;15.27;7.33;;;7.10;1.00;;;;;;5022588;28;20454;-85
2021/12/20 09:17:51;;;;;;;11.23;6.37;;;7.10;1.00;;;;;;5025769;28;20460;-84
2021/12/20 09:20:22;;;;;;;14.10;6.33;;;7.20;4.40;;;;;;5025626;28;20484;-85
2021/12/20 09:22:52;;;;;;;8.60;6.33;;;7.20;12.10;;;;;;5024552;28;20473;-84
2021/12/20 09:25:25;;;;;;;14.07;7.53;;;7.20;85.50;;;;;;5023250;28;20453;-86
2021/12/20 09:27:55;;;;;;;15.27;7.87;;;7.60;29.40;;;;;;5033242;28;20465;-84
2021/12/20 09:30:25;;;;;;;9.33;4.80;;;7.30;28.40;;;;;;5029177;28;20471;-83
2021/12/20 09:32:55;;;;;;;11.83;6.10;;;7.30;45.50;;;;;;5034078;28;20964;-84
2021/12/20 09:35:24;;;;;;;10.73;5.53;;;7.40;1.20;;;;;;5028947;28;20456;-83
2021/12/20 09:37:52;;;;;;;10.53;5.60;;;7.30;21.90;;;;;;5037425;28;20456;-86
2021/12/20 09:40:31;;;;;;;14.40;6.37;;;7.30;51.20;;;;;;5029284;28;20479;-84
2021/12/20 09:43:02;;;;;;;12.53;6.03;;;7.30;99.90;;;;;;5029601;28;20459;-83
2021/12/20 09:45:32;;;;;;;11.68;7.20;;;7.60;99.90;;;;;;5027153;28;20457;-79
2021/12/20 09:48:01;;;;;;;9.63;6.07;;;7.40;99.90;;;;;;5025540;28;20214;-83
2021/12/20 09:50:30;;;;;;;11.93;5.60;;;7.40;90.80;;;;;;5026149;28;20837;-83
2021/12/20 09:53:03;;;;;;;14.30;5.33;;;7.60;91.30;;;;;;5037537;28;20456;-82
2021/12/20 09:55:33;;;;;;;12.07;5.60;;;7.50;58.90;;;;;;5029029;28;20667;-83
2021/12/20 09:58:03;;;;;;;13.00;5.73;;;7.50;8.10;;;;;;5027001;28;20453;-82
2021/12/20 10:00:32;;;;;;;15.10;6.63;;;7.50;1.00;;;;;;5023366;28;20496;-82
2021/12/20 10:03:03;;;;;;;8.20;5.23;;;7.50;1.00;;;;;;5038488;28;20448;-82
2021/12/20 10:05:33;;;;;;;12.63;5.57;;;7.50;8.90;;;;;;5019605;28;20593;-85
2021/12/20 10:08:09;;;;;;;12.95;6.28;;;7.50;4.20;;;;;;5021657;28;20717;-82
2021/12/20 10:10:40;;;;;;;15.23;6.60;;;7.50;1.00;;;;;;5026748;28;20209;-82
2021/12/20 10:13:19;;;;;;;7.90;4.30;;;7.50;1.00;;;;;;5023691;28;20459;-84
2021/12/20 10:15:48;;;;;;;10.83;7.10;;;7.50;2.40;;;;;;5027842;28;20456;-86
2021/12/20 10:18:18;;;;;;;9.00;5.10;;;7.50;1.00;;;;;;5017988;28;21297;-84
2021/12/20 10:20:51;;;;;;;11.83;6.60;;;7.50;22.50;;;;;;5024934;28;20473;-83
2021/12/20 10:23:21;;;;;;;13.70;6.37;;;7.50;1.00;;;;;;5032722;28;20511;-85
2021/12/20 10:25:52;;;;;;;8.17;5.70;;;7.50;1.00;;;;;;5025000;28;20863;-82
2021/12/20 10:28:32;;;;;;;11.50;5.23;;;7.40;1.00;;;;;;5022881;28;20487;-83
2021/12/20 10:31:02;;;;;;;11.60;5.23;;;7.50;1.00;;;;;;5025933;28;20476;-85
2021/12/20 10:33:31;;;;;;;12.30;7.10;;;7.50;1.00;;;;;;5022198;28;20500;-83
2021/12/20 10:36:02;;;;;;;10.47;5.50;;;7.50;1.00;;;;;;5018257;28;20453;-83
2021/12/20 10:38:32;;;;;;;15.80;7.47;;;7.50;1.00;;;;;;5024236;28;20457;-85
2021/12/20 10:41:04;;;;;;;11.17;5.77;;;7.60;1.00;;;;;;5027674;28;20464;-83
2021/12/20 10:43:40;;;;;;;11.30;6.43;;;7.60;1.00;;;;;;5030061;28;20444;-84
2021/12/20 10:46:13;;;;;;;15.27;6.10;;;7.60;1.00;;;;;;5026715;28;20547;-86
2021/12/20 10:48:47;;;;;;;10.00;5.27;;;7.60;1.00;;;;;;5032902;28;20478;-80
2021/12/20 10:51:25;;;;;;;12.07;5.03;;;7.70;1.00;;;;;;5027631;28;20979;-83
2021/12/20 10:53:59;;;;;;;12.70;5.53;;;7.70;1.00;;;;;;5018950;28;20444;-84
2021/12/20 10:56:30;;;;;;;10.23;4.73;;;7.70;1.00;;;;;;5024215;28;20449;-83
2021/12/20 10:59:01;;;;;;;10.40;4.60;;;7.70;1.00;;;;;;5027657;28;20452;-84
2021/12/20 11:02:05;;;;;;;10.03;5.37;;;7.70;1.00;;;;;;5020648;28;20478;-82
2021/12/20 11:04:45;;;;;;;9.33;4.30;;;7.80;1.00;;;;;;5016188;28;20521;-84
2021/12/20 11:10:08;;;;;;;6.53;3.73;;;7.90;1.00;;;;;;5024535;28;20580;-82
2021/12/20 11:12:37;;;;;;;11.37;5.77;;;8.00;1.00;;;;;;5017637;28;20544;-83
2021/12/20 11:15:08;;;;;;;9.80;4.77;;;8.10;1.00;;;;;;5021493;28;20485;-85
2021/12/20 11:17:41;;;;;;;8.37;3.70;;;8.10;1.00;;;;;;5028676;28;21164;-85
2021/12/20 11:20:17;;;;;;;5.93;3.83;;;8.30;1.00;;;;;;5019029;28;20473;-84
2021/12/20 11:22:45;;;;;;;7.70;3.40;;;8.40;1.00;;;;;;5021941;28;20481;-83
2021/12/20 11:25:15;;;;;;;6.60;3.60;;;8.50;99.90;;;;;;5018317;28;21092;-86
2021/12/20 11:27:51;;;;;;;8.13;4.10;;;8.60;99.90;;;;;;5029124;28;20548;-84
2021/12/20 11:30:22;;;;;;;6.97;3.90;;;8.60;99.90;;;;;;5018342;28;20607;-83
2021/12/20 11:32:51;;;;;;;7.93;3.57;;;8.60;99.90;;;;;;5022977;28;20462;-86
2021/12/20 11:35:24;;;;;;;10.00;3.67;;;8.60;99.90;;;;;;5044702;28;20473;-84
2021/12/20 11:37:52;;;;;;;4.40;3.13;;;8.70;99.90;;;;;;5029558;28;20836;-82
2021/12/20 11:40:21;;;;;;;10.10;3.57;;;8.80;99.90;;;;;;5034318;28;20526;-86
2021/12/20 11:42:51;;;;;;;6.03;3.63;;;8.80;99.90;;;;;;5019391;28;20896;-87
2021/12/20 11:45:20;;;;;;;9.80;3.83;;;8.90;99.90;;;;;;5017015;28;20916;-86
2021/12/20 11:47:52;;;;;;;7.57;5.00;;;8.90;99.90;;;;;;5021480;28;20580;-86
2021/12/20 11:50:30;;;;;;;5.70;3.30;;;9.00;99.90;;;;;;5013387;28;20483;-86
2021/12/20 11:53:06;;;;;;;6.83;4.13;;;9.10;99.90;;;;;;5023122;28;20501;-84
2021/12/20 11:55:36;;;;;;;4.70;3.50;;;9.10;99.90;;;;;;5026291;28;21050;-84
2021/12/20 11:58:15;;;;;;;6.77;3.20;;;9.50;99.90;;;;;;5030690;28;20448;-85
2021/12/20 12:00:49;;;;;;;5.88;3.72;;;9.30;99.90;;;;;;5009282;28;20679;-84
2021/12/20 12:03:20;;;;;;;5.00;2.87;;;9.20;99.90;;;;;;5016374;28;20215;-85
2021/12/20 12:05:51;;;;;;;4.73;3.30;;;9.30;99.90;;;;;;5022901;28;20797;-85
2021/12/20 12:08:25;;;;;;;5.23;3.00;;;9.20;99.90;;;;;;5019751;28;20460;-87
2021/12/20 12:10:55;;;;;;;5.43;2.90;;;9.10;99.90;;;;;;5014887;28;20583;-86
2021/12/20 12:13:26;;;;;;;5.67;3.60;;;9.10;99.90;;;;;;5020203;28;20752;-86
2021/12/20 12:16:01;;;;;;;10.73;4.90;;;9.00;99.90;;;;;;5021246;28;21237;-86
2021/12/20 12:18:48;;;;;;;9.03;3.87;;;9.00;99.90;;;;;;5022661;28;20867;-86
2021/12/20 12:21:43;;;;;;;5.53;3.20;;;8.90;99.90;;;;;;5014943;28;20510;-86
2021/12/20 12:24:38;;;;;;;6.60;3.60;;;8.80;99.90;;;;;;5020894;28;20457;-85
2021/12/20 12:27:21;;;;;;;7.93;3.50;;;8.70;99.90;;;;;;5011376;28;20903;-88
2021/12/20 12:30:23;;;;;;;7.30;3.37;;;8.60;99.90;;;;;;5016216;28;20493;-87
2021/12/20 12:33:26;;;;;;;6.17;3.07;;;8.50;99.90;;;;;;5020887;28;20900;-86
2021/12/20 12:35:58;;;;;;;7.20;3.77;;;8.50;99.90;;;;;;5020629;28;20574;-85
2021/12/20 12:38:31;;;;;;;5.63;3.20;;;8.50;99.90;;;;;;5043891;28;20484;-86
2021/12/20 12:41:13;;;;;;;6.87;3.97;;;8.50;99.90;;;;;;5019935;28;20472;-85
2021/12/20 12:44:07;;;;;;;7.90;3.70;;;8.50;99.90;;;;;;5019640;28;20464;-85
2021/12/20 12:46:50;;;;;;;6.70;4.10;;;8.50;99.90;;;;;;5023789;28;20480;-84
2021/12/20 12:49:41;;;;;;;5.63;3.17;;;8.50;99.90;;;;;;5029793;28;20543;-86
2021/12/20 12:52:31;;;;;;;7.03;3.10;;;8.50;99.90;;;;;;5019533;28;20487;-85
2021/12/20 12:55:27;;;;;;;7.17;3.50;;;8.40;99.90;;;;;;5023803;28;20445;-83
2021/12/20 12:57:56;;;;;;;5.23;2.57;;;8.50;99.90;;;;;;5025304;28;20486;-85
2021/12/20 13:00:31;;;;;;;3.37;2.07;;;8.60;99.90;;;;;;5019533;28;20531;-86
2021/12/20 13:03:11;;;;;;;5.47;2.37;;;8.70;99.90;;;;;;5025191;28;20460;-84
2021/12/20 13:05:41;;;;;;;8.03;3.73;;;8.70;99.90;;;;;;5018903;28;20456;-84
2021/12/20 13:08:10;;;;;;;4.70;2.90;;;8.70;99.90;;;;;;5019361;28;20499;-84
2021/12/20 13:10:43;;;;;;;5.50;2.80;;;8.80;99.90;;;;;;5015927;28;20581;-84
2021/12/20 13:13:19;;;;;;;7.10;3.67;;;8.70;99.90;;;;;;5020525;28;20452;-84
2021/12/20 13:15:53;;;;;;;5.73;3.50;;;8.60;99.90;;;;;;5018965;28;20465;-85
2021/12/20 13:18:28;;;;;;;6.33;3.23;;;8.70;99.90;;;;;;5021773;28;20470;-84
2021/12/20 13:21:03;;;;;;;6.73;4.03;;;8.60;99.90;;;;;;5016923;28;20967;-85
2021/12/20 13:23:34;;;;;;;6.27;3.70;;;8.60;99.90;;;;;;5020769;28;20551;-86
2021/12/20 13:26:06;;;;;;;6.33;3.40;;;8.70;99.90;;;;;;5016744;28;20461;-86
2021/12/20 13:28:36;;;;;;;8.10;4.40;;;8.60;99.90;;;;;;5019382;28;20456;-85
2021/12/20 13:31:07;;;;;;;15.00;5.23;;;8.60;99.90;;;;;;5018411;28;20495;-85
2021/12/20 13:33:37;;;;;;;9.10;4.83;;;8.60;99.90;;;;;;5019684;28;20477;-87